CheckWX is a tool to help pilots better visualize weather data.  It is not intended as a substitute for an official pre-flight weather briefing.

22:15:53 UTC

KMKL METAR
Mc Kellar-Sipes Regional Airport
Jackson, Tennessee, USA
Current

23 mins ago

KMKL 152153Z 16008KT 10SM FEW030 BKN038 OVC110 26/23 A2998 RMK AO2 RAB19E28 SLP148 P0000 T02610233
Observed
Jul-15 @ 21:53 UTC
Wind
  • 160° at 8 KTS
Visibility
10 SM
Flight Rules
VFR
Cloud Levels
  • Few at 3,000' AGL
  • Broken at 3,800' AGL
  • Overcast at 11,000' AGL
Temperature
26°C / 79°F
Dewpoint
23°C / 73°F
Humidity
84%
Altimeter
29.98" Hg
Pressure
1015.22 hPa
Current Rain
0.01"
Previous

1 hour ago

KMKL 152053Z VRB05KT 10SM SCT035 BKN045 26/23 A2999 RMK AO2 RAB1955E16 SLP153 P0002 60002 T02610233 58010
Observed
Jul-15 @ 20:53 UTC
Wind
  • Variable at 5 KTS
Visibility
10 SM
Flight Rules
VFR
Cloud Levels
  • Scattered at 3,500' AGL
  • Broken at 4,500' AGL
Temperature
26°C / 79°F
Dewpoint
23°C / 73°F
Humidity
84%
Altimeter
29.99" Hg
Pressure
1015.62 hPa
Current Rain
0.02"
Previous

2 hours ago

KMKL 152018Z 16008KT 10SM FEW025 BKN044 OVC060 25/23 A3001 RMK AO2 RAB1955E16 P0002 T02500233
Observed
Jul-15 @ 20:18 UTC
Wind
  • 160° at 8 KTS
Visibility
10 SM
Flight Rules
VFR
Cloud Levels
  • Few at 2,500' AGL
  • Broken at 4,400' AGL
  • Overcast at 6,000' AGL
Temperature
25°C / 77°F
Dewpoint
23°C / 73°F
Humidity
89%
Altimeter
30.01" Hg
Pressure
1016.22 hPa
Current Rain
0.02"